sensor_id;sensor_type;location;lat;lon;timestamp;temperature;humidity
61004;DHT22;46889;37.310;13.582;2023-07-31T00:01:15;27.80;98.30
61004;DHT22;46889;37.310;13.582;2023-07-31T00:03:41;27.80;97.00
61004;DHT22;46889;37.310;13.582;2023-07-31T00:06:07;27.80;96.30
61004;DHT22;46889;37.310;13.582;2023-07-31T00:08:33;27.80;96.50
61004;DHT22;46889;37.310;13.582;2023-07-31T00:10:59;27.90;95.90
61004;DHT22;46889;37.310;13.582;2023-07-31T00:13:25;27.90;96.10
61004;DHT22;46889;37.310;13.582;2023-07-31T00:15:50;27.90;95.60
61004;DHT22;46889;37.310;13.582;2023-07-31T00:18:16;27.90;95.30
61004;DHT22;46889;37.310;13.582;2023-07-31T00:20:42;27.90;95.40
61004;DHT22;46889;37.310;13.582;2023-07-31T00:23:08;27.90;94.90
61004;DHT22;46889;37.310;13.582;2023-07-31T00:25:33;27.90;95.20
61004;DHT22;46889;37.310;13.582;2023-07-31T00:27:59;27.90;95.10
61004;DHT22;46889;37.310;13.582;2023-07-31T00:30:25;27.90;94.80
61004;DHT22;46889;37.310;13.582;2023-07-31T00:32:52;27.90;94.50
61004;DHT22;46889;37.310;13.582;2023-07-31T00:35:18;27.90;94.40
61004;DHT22;46889;37.310;13.582;2023-07-31T00:37:44;27.90;94.20
61004;DHT22;46889;37.310;13.582;2023-07-31T00:40:09;27.80;94.10
61004;DHT22;46889;37.310;13.582;2023-07-31T00:42:35;27.80;94.00
61004;DHT22;46889;37.310;13.582;2023-07-31T00:45:01;27.80;94.00
61004;DHT22;46889;37.310;13.582;2023-07-31T00:47:27;27.70;93.80
61004;DHT22;46889;37.310;13.582;2023-07-31T00:49:53;27.80;93.90
61004;DHT22;46889;37.310;13.582;2023-07-31T00:52:19;27.70;93.80
61004;DHT22;46889;37.310;13.582;2023-07-31T00:54:44;27.70;93.70
61004;DHT22;46889;37.310;13.582;2023-07-31T00:57:10;27.70;93.70
61004;DHT22;46889;37.310;13.582;2023-07-31T00:59:36;27.70;93.70
61004;DHT22;46889;37.310;13.582;2023-07-31T01:02:02;27.60;93.70
61004;DHT22;46889;37.310;13.582;2023-07-31T01:04:28;27.70;93.50
61004;DHT22;46889;37.310;13.582;2023-07-31T01:06:56;27.70;93.30
61004;DHT22;46889;37.310;13.582;2023-07-31T01:12:00;27.70;92.90
61004;DHT22;46889;37.310;13.582;2023-07-31T01:14:26;27.90;93.00
61004;DHT22;46889;37.310;13.582;2023-07-31T01:16:52;27.80;92.90
61004;DHT22;46889;37.310;13.582;2023-07-31T01:19:19;27.80;92.90
61004;DHT22;46889;37.310;13.582;2023-07-31T01:21:53;27.80;92.90
61004;DHT22;46889;37.310;13.582;2023-07-31T01:24:23;27.80;92.70
61004;DHT22;46889;37.310;13.582;2023-07-31T01:26:55;27.70;92.80
61004;DHT22;46889;37.310;13.582;2023-07-31T01:29:24;27.80;92.70
61004;DHT22;46889;37.310;13.582;2023-07-31T01:31:51;27.70;92.60
61004;DHT22;46889;37.310;13.582;2023-07-31T01:34:18;27.80;92.60
61004;DHT22;46889;37.310;13.582;2023-07-31T01:36:45;27.70;92.50
61004;DHT22;46889;37.310;13.582;2023-07-31T01:39:11;27.80;92.20
61004;DHT22;46889;37.310;13.582;2023-07-31T01:41:37;27.90;92.00
61004;DHT22;46889;37.310;13.582;2023-07-31T01:44:03;27.90;91.80
61004;DHT22;46889;37.310;13.582;2023-07-31T01:46:29;28.00;91.70
61004;DHT22;46889;37.310;13.582;2023-07-31T01:48:54;28.00;91.70
61004;DHT22;46889;37.310;13.582;2023-07-31T01:51:20;28.00;91.70
61004;DHT22;46889;37.310;13.582;2023-07-31T01:53:46;28.00;91.60
61004;DHT22;46889;37.310;13.582;2023-07-31T01:56:12;28.00;91.50
61004;DHT22;46889;37.310;13.582;2023-07-31T01:58:38;28.10;91.70
61004;DHT22;46889;37.310;13.582;2023-07-31T02:01:03;28.10;91.40
61004;DHT22;46889;37.310;13.582;2023-07-31T02:03:29;28.10;91.30
61004;DHT22;46889;37.310;13.582;2023-07-31T02:05:55;28.10;91.30
61004;DHT22;46889;37.310;13.582;2023-07-31T02:08:22;28.10;91.20
61004;DHT22;46889;37.310;13.582;2023-07-31T02:10:48;28.10;91.10
61004;DHT22;46889;37.310;13.582;2023-07-31T02:13:13;28.10;91.10
61004;DHT22;46889;37.310;13.582;2023-07-31T02:15:39;28.20;91.00
61004;DHT22;46889;37.310;13.582;2023-07-31T02:18:05;28.20;91.00
61004;DHT22;46889;37.310;13.582;2023-07-31T02:20:33;28.10;91.10
61004;DHT22;46889;37.310;13.582;2023-07-31T02:22:59;28.10;91.00
61004;DHT22;46889;37.310;13.582;2023-07-31T02:25:25;28.10;91.00
61004;DHT22;46889;37.310;13.582;2023-07-31T02:27:50;28.10;91.00
61004;DHT22;46889;37.310;13.582;2023-07-31T02:30:16;28.00;90.90
61004;DHT22;46889;37.310;13.582;2023-07-31T02:32:42;28.00;90.90
61004;DHT22;46889;37.310;13.582;2023-07-31T02:35:08;28.10;90.70
61004;DHT22;46889;37.310;13.582;2023-07-31T02:37:34;28.20;90.50
61004;DHT22;46889;37.310;13.582;2023-07-31T02:39:59;28.20;90.60
61004;DHT22;46889;37.310;13.582;2023-07-31T02:42:25;28.10;90.70
61004;DHT22;46889;37.310;13.582;2023-07-31T02:44:51;28.00;90.80
61004;DHT22;46889;37.310;13.582;2023-07-31T02:47:21;27.80;90.90
61004;DHT22;46889;37.310;13.582;2023-07-31T02:49:47;27.80;90.90
61004;DHT22;46889;37.310;13.582;2023-07-31T02:52:13;27.70;90.90
61004;DHT22;46889;37.310;13.582;2023-07-31T02:54:39;27.70;90.70
61004;DHT22;46889;37.310;13.582;2023-07-31T02:57:04;27.70;90.70
61004;DHT22;46889;37.310;13.582;2023-07-31T02:59:30;27.60;90.70
61004;DHT22;46889;37.310;13.582;2023-07-31T03:01:56;27.60;90.70
61004;DHT22;46889;37.310;13.582;2023-07-31T03:04:22;27.60;90.80
61004;DHT22;46889;37.310;13.582;2023-07-31T03:06:48;27.60;90.70
61004;DHT22;46889;37.310;13.582;2023-07-31T03:09:14;27.50;90.60
61004;DHT22;46889;37.310;13.582;2023-07-31T03:11:39;27.60;90.60
61004;DHT22;46889;37.310;13.582;2023-07-31T03:14:05;27.60;90.60
61004;DHT22;46889;37.310;13.582;2023-07-31T03:16:31;27.60;90.50
61004;DHT22;46889;37.310;13.582;2023-07-31T03:18:57;27.60;90.30
61004;DHT22;46889;37.310;13.582;2023-07-31T03:21:23;27.70;90.10
61004;DHT22;46889;37.310;13.582;2023-07-31T03:23:49;27.70;90.10
61004;DHT22;46889;37.310;13.582;2023-07-31T03:26:14;27.70;90.20
61004;DHT22;46889;37.310;13.582;2023-07-31T03:28:40;27.70;90.20
61004;DHT22;46889;37.310;13.582;2023-07-31T03:31:06;27.60;90.20
61004;DHT22;46889;37.310;13.582;2023-07-31T03:33:33;27.60;90.30
61004;DHT22;46889;37.310;13.582;2023-07-31T03:35:59;27.60;90.40
61004;DHT22;46889;37.310;13.582;2023-07-31T03:38:25;27.50;90.50
61004;DHT22;46889;37.310;13.582;2023-07-31T03:40:51;27.60;90.40
61004;DHT22;46889;37.310;13.582;2023-07-31T03:43:16;27.60;90.40
61004;DHT22;46889;37.310;13.582;2023-07-31T03:45:42;27.50;90.50
61004;DHT22;46889;37.310;13.582;2023-07-31T03:48:08;27.50;90.50
61004;DHT22;46889;37.310;13.582;2023-07-31T03:50:34;27.40;90.40
61004;DHT22;46889;37.310;13.582;2023-07-31T03:53:00;27.40;90.40
61004;DHT22;46889;37.310;13.582;2023-07-31T03:55:26;27.30;90.40
61004;DHT22;46889;37.310;13.582;2023-07-31T03:57:51;27.30;90.50
61004;DHT22;46889;37.310;13.582;2023-07-31T04:00:17;27.30;90.60
61004;DHT22;46889;37.310;13.582;2023-07-31T04:02:43;27.20;90.60
61004;DHT22;46889;37.310;13.582;2023-07-31T04:05:09;27.20;90.70
61004;DHT22;46889;37.310;13.582;2023-07-31T04:07:36;27.20;90.80
61004;DHT22;46889;37.310;13.582;2023-07-31T04:10:02;27.20;90.80
61004;DHT22;46889;37.310;13.582;2023-07-31T04:12:28;27.20;90.70
61004;DHT22;46889;37.310;13.582;2023-07-31T04:14:54;27.20;90.70
61004;DHT22;46889;37.310;13.582;2023-07-31T04:17:20;27.10;90.70
61004;DHT22;46889;37.310;13.582;2023-07-31T04:19:46;27.00;90.70
61004;DHT22;46889;37.310;13.582;2023-07-31T04:22:12;27.00;90.60
61004;DHT22;46889;37.310;13.582;2023-07-31T04:24:37;27.10;90.60
61004;DHT22;46889;37.310;13.582;2023-07-31T04:27:03;27.20;90.50
61004;DHT22;46889;37.310;13.582;2023-07-31T04:29:29;27.20;90.50
61004;DHT22;46889;37.310;13.582;2023-07-31T04:31:55;27.20;90.50
61004;DHT22;46889;37.310;13.582;2023-07-31T04:34:21;27.20;90.50
61004;DHT22;46889;37.310;13.582;2023-07-31T04:36:46;27.20;90.50
61004;DHT22;46889;37.310;13.582;2023-07-31T04:39:12;27.20;90.50
61004;DHT22;46889;37.310;13.582;2023-07-31T04:41:38;27.20;90.60
61004;DHT22;46889;37.310;13.582;2023-07-31T04:44:04;27.30;90.40
61004;DHT22;46889;37.310;13.582;2023-07-31T04:46:29;27.30;90.40
61004;DHT22;46889;37.310;13.582;2023-07-31T04:48:56;27.30;90.30
61004;DHT22;46889;37.310;13.582;2023-07-31T04:51:21;27.30;90.30
61004;DHT22;46889;37.310;13.582;2023-07-31T04:53:48;27.30;90.30
61004;DHT22;46889;37.310;13.582;2023-07-31T04:56:14;27.30;90.30
61004;DHT22;46889;37.310;13.582;2023-07-31T04:58:40;27.30;90.30
61004;DHT22;46889;37.310;13.582;2023-07-31T05:01:06;27.40;90.30
61004;DHT22;46889;37.310;13.582;2023-07-31T05:03:32;27.40;90.30
61004;DHT22;46889;37.310;13.582;2023-07-31T05:05:58;27.50;90.30
61004;DHT22;46889;37.310;13.582;2023-07-31T05:08:24;27.60;90.10
61004;DHT22;46889;37.310;13.582;2023-07-31T05:10:49;27.70;90.00
61004;DHT22;46889;37.310;13.582;2023-07-31T05:13:15;27.80;89.70
61004;DHT22;46889;37.310;13.582;2023-07-31T05:15:41;27.90;89.40
61004;DHT22;46889;37.310;13.582;2023-07-31T05:18:07;28.20;88.90
61004;DHT22;46889;37.310;13.582;2023-07-31T05:20:33;28.60;88.70
61004;DHT22;46889;37.310;13.582;2023-07-31T05:22:58;28.70;88.00
61004;DHT22;46889;37.310;13.582;2023-07-31T05:25:24;29.30;87.50
61004;DHT22;46889;37.310;13.582;2023-07-31T05:27:50;30.60;85.40
61004;DHT22;46889;37.310;13.582;2023-07-31T05:30:16;31.60;83.50
61004;DHT22;46889;37.310;13.582;2023-07-31T05:32:42;32.30;81.40
61004;DHT22;46889;37.310;13.582;2023-07-31T05:35:08;33.10;80.00
61004;DHT22;46889;37.310;13.582;2023-07-31T05:37:34;33.10;78.90
61004;DHT22;46889;37.310;13.582;2023-07-31T05:40:00;34.00;77.50
61004;DHT22;46889;37.310;13.582;2023-07-31T05:42:26;34.30;76.60
61004;DHT22;46889;37.310;13.582;2023-07-31T05:44:52;34.90;74.70
61004;DHT22;46889;37.310;13.582;2023-07-31T05:47:17;35.40;73.80
61004;DHT22;46889;37.310;13.582;2023-07-31T05:49:43;35.40;72.40
61004;DHT22;46889;37.310;13.582;2023-07-31T05:52:09;36.00;71.90
61004;DHT22;46889;37.310;13.582;2023-07-31T05:54:35;37.20;69.40
61004;DHT22;46889;37.310;13.582;2023-07-31T05:57:01;36.00;69.40
61004;DHT22;46889;37.310;13.582;2023-07-31T05:59:31;36.40;69.30
61004;DHT22;46889;37.310;13.582;2023-07-31T06:01:58;36.90;67.40
61004;DHT22;46889;37.310;13.582;2023-07-31T06:04:24;38.10;65.80
61004;DHT22;46889;37.310;13.582;2023-07-31T06:06:51;38.40;64.10
61004;DHT22;46889;37.310;13.582;2023-07-31T06:09:17;38.30;63.40
61004;DHT22;46889;37.310;13.582;2023-07-31T06:11:43;38.60;62.60
61004;DHT22;46889;37.310;13.582;2023-07-31T06:14:08;39.10;61.50
61004;DHT22;46889;37.310;13.582;2023-07-31T06:16:34;38.80;60.30
61004;DHT22;46889;37.310;13.582;2023-07-31T06:19:00;39.10;60.40
61004;DHT22;46889;37.310;13.582;2023-07-31T06:21:26;39.30;59.40
61004;DHT22;46889;37.310;13.582;2023-07-31T06:23:52;39.20;59.00
61004;DHT22;46889;37.310;13.582;2023-07-31T06:26:18;39.10;58.80
61004;DHT22;46889;37.310;13.582;2023-07-31T06:28:43;39.90;57.80
61004;DHT22;46889;37.310;13.582;2023-07-31T06:31:09;39.80;57.20
61004;DHT22;46889;37.310;13.582;2023-07-31T06:33:35;38.80;57.20
61004;DHT22;46889;37.310;13.582;2023-07-31T06:36:01;39.10;57.80
61004;DHT22;46889;37.310;13.582;2023-07-31T06:38:27;38.70;57.10
61004;DHT22;46889;37.310;13.582;2023-07-31T06:40:53;39.00;56.90
61004;DHT22;46889;37.310;13.582;2023-07-31T06:43:19;39.40;56.30
61004;DHT22;46889;37.310;13.582;2023-07-31T06:45:45;39.30;56.40
61004;DHT22;46889;37.310;13.582;2023-07-31T06:48:11;39.70;55.90
61004;DHT22;46889;37.310;13.582;2023-07-31T06:50:37;40.00;55.00
61004;DHT22;46889;37.310;13.582;2023-07-31T06:53:03;41.30;54.70
61004;DHT22;46889;37.310;13.582;2023-07-31T06:55:29;41.40;53.40
61004;DHT22;46889;37.310;13.582;2023-07-31T06:57:55;42.50;52.70
61004;DHT22;46889;37.310;13.582;2023-07-31T07:00:21;43.10;50.90
61004;DHT22;46889;37.310;13.582;2023-07-31T07:02:47;42.30;50.40
61004;DHT22;46889;37.310;13.582;2023-07-31T07:05:14;41.60;51.10
61004;DHT22;46889;37.310;13.582;2023-07-31T07:07:40;42.50;50.70
61004;DHT22;46889;37.310;13.582;2023-07-31T07:10:06;44.20;50.80
61004;DHT22;46889;37.310;13.582;2023-07-31T07:12:32;45.60;49.00
61004;DHT22;46889;37.310;13.582;2023-07-31T07:14:58;46.40;49.20
61004;DHT22;46889;37.310;13.582;2023-07-31T07:17:24;47.10;48.00
61004;DHT22;46889;37.310;13.582;2023-07-31T07:19:50;47.50;47.80
61004;DHT22;46889;37.310;13.582;2023-07-31T07:22:17;47.70;47.10
61004;DHT22;46889;37.310;13.582;2023-07-31T07:24:42;47.60;46.10
61004;DHT22;46889;37.310;13.582;2023-07-31T07:27:08;47.20;45.90
61004;DHT22;46889;37.310;13.582;2023-07-31T07:29:34;46.00;45.90
61004;DHT22;46889;37.310;13.582;2023-07-31T07:32:00;44.90;46.40
61004;DHT22;46889;37.310;13.582;2023-07-31T07:34:26;43.80;47.00
61004;DHT22;46889;37.310;13.582;2023-07-31T07:36:52;43.40;48.70
61004;DHT22;46889;37.310;13.582;2023-07-31T07:39:18;42.50;49.30
61004;DHT22;46889;37.310;13.582;2023-07-31T07:41:44;42.00;50.80
61004;DHT22;46889;37.310;13.582;2023-07-31T07:44:10;40.60;56.70
61004;DHT22;46889;37.310;13.582;2023-07-31T07:46:38;40.20;59.40
61004;DHT22;46889;37.310;13.582;2023-07-31T07:49:03;39.90;60.90
61004;DHT22;46889;37.310;13.582;2023-07-31T07:51:29;40.00;60.30
61004;DHT22;46889;37.310;13.582;2023-07-31T07:53:57;39.80;61.00
61004;DHT22;46889;37.310;13.582;2023-07-31T07:56:23;40.10;60.10
61004;DHT22;46889;37.310;13.582;2023-07-31T07:58:49;39.40;60.70
61004;DHT22;46889;37.310;13.582;2023-07-31T08:01:15;39.20;61.40
61004;DHT22;46889;37.310;13.582;2023-07-31T08:03:41;39.10;61.50
61004;DHT22;46889;37.310;13.582;2023-07-31T08:06:07;39.30;61.70
61004;DHT22;46889;37.310;13.582;2023-07-31T08:08:37;39.20;61.90
61004;DHT22;46889;37.310;13.582;2023-07-31T08:11:03;38.70;63.00
61004;DHT22;46889;37.310;13.582;2023-07-31T08:13:29;38.60;63.00
61004;DHT22;46889;37.310;13.582;2023-07-31T08:15:55;38.60;62.30
61004;DHT22;46889;37.310;13.582;2023-07-31T08:18:21;38.70;60.10
61004;DHT22;46889;37.310;13.582;2023-07-31T08:20:47;38.50;60.20
61004;DHT22;46889;37.310;13.582;2023-07-31T08:23:13;39.00;60.80
61004;DHT22;46889;37.310;13.582;2023-07-31T08:25:39;38.40;60.20
61004;DHT22;46889;37.310;13.582;2023-07-31T08:28:05;38.40;60.90
61004;DHT22;46889;37.310;13.582;2023-07-31T08:30:31;38.50;57.60
61004;DHT22;46889;37.310;13.582;2023-07-31T08:32:57;38.70;57.30
61004;DHT22;46889;37.310;13.582;2023-07-31T08:35:23;38.50;58.10
61004;DHT22;46889;37.310;13.582;2023-07-31T08:37:52;38.50;58.00
61004;DHT22;46889;37.310;13.582;2023-07-31T08:40:18;38.60;57.10
61004;DHT22;46889;37.310;13.582;2023-07-31T08:42:45;38.30;55.90
61004;DHT22;46889;37.310;13.582;2023-07-31T08:45:20;38.90;55.20
61004;DHT22;46889;37.310;13.582;2023-07-31T08:47:47;38.50;55.40
61004;DHT22;46889;37.310;13.582;2023-07-31T08:50:13;38.50;55.60
61004;DHT22;46889;37.310;13.582;2023-07-31T08:52:40;38.40;55.40
61004;DHT22;46889;37.310;13.582;2023-07-31T08:55:06;38.00;55.90
61004;DHT22;46889;37.310;13.582;2023-07-31T08:57:33;38.00;55.20
61004;DHT22;46889;37.310;13.582;2023-07-31T08:59:59;37.90;56.00
61004;DHT22;46889;37.310;13.582;2023-07-31T09:02:26;37.80;55.50
61004;DHT22;46889;37.310;13.582;2023-07-31T09:04:54;37.50;56.60
61004;DHT22;46889;37.310;13.582;2023-07-31T09:07:20;37.70;56.60
61004;DHT22;46889;37.310;13.582;2023-07-31T09:09:46;38.00;56.80
61004;DHT22;46889;37.310;13.582;2023-07-31T09:12:12;38.10;57.70
61004;DHT22;46889;37.310;13.582;2023-07-31T09:14:38;37.90;59.10
61004;DHT22;46889;37.310;13.582;2023-07-31T09:17:04;37.30;60.50
61004;DHT22;46889;37.310;13.582;2023-07-31T09:19:34;37.40;59.70
61004;DHT22;46889;37.310;13.582;2023-07-31T09:22:03;37.20;61.00
61004;DHT22;46889;37.310;13.582;2023-07-31T09:24:29;37.00;61.00
61004;DHT22;46889;37.310;13.582;2023-07-31T09:26:56;37.10;61.00
61004;DHT22;46889;37.310;13.582;2023-07-31T09:29:22;37.40;61.90
61004;DHT22;46889;37.310;13.582;2023-07-31T09:31:48;37.20;63.20
61004;DHT22;46889;37.310;13.582;2023-07-31T09:34:14;37.10;63.70
61004;DHT22;46889;37.310;13.582;2023-07-31T09:36:44;37.10;64.50
61004;DHT22;46889;37.310;13.582;2023-07-31T09:39:10;36.90;63.90
61004;DHT22;46889;37.310;13.582;2023-07-31T09:41:40;35.90;65.10
61004;DHT22;46889;37.310;13.582;2023-07-31T09:44:06;36.00;66.10
61004;DHT22;46889;37.310;13.582;2023-07-31T09:46:34;35.80;67.80
61004;DHT22;46889;37.310;13.582;2023-07-31T09:49:07;35.40;69.70
61004;DHT22;46889;37.310;13.582;2023-07-31T09:51:35;35.60;69.50
61004;DHT22;46889;37.310;13.582;2023-07-31T09:54:13;35.30;73.20
61004;DHT22;46889;37.310;13.582;2023-07-31T09:56:43;35.20;70.70
61004;DHT22;46889;37.310;13.582;2023-07-31T09:59:13;35.50;68.60
61004;DHT22;46889;37.310;13.582;2023-07-31T10:01:40;35.80;66.70
61004;DHT22;46889;37.310;13.582;2023-07-31T10:04:07;36.00;66.00
61004;DHT22;46889;37.310;13.582;2023-07-31T10:06:33;36.10;69.90
61004;DHT22;46889;37.310;13.582;2023-07-31T10:09:00;36.20;70.40
61004;DHT22;46889;37.310;13.582;2023-07-31T10:11:26;36.00;73.10
61004;DHT22;46889;37.310;13.582;2023-07-31T10:13:53;35.60;75.00
61004;DHT22;46889;37.310;13.582;2023-07-31T10:16:19;35.30;77.40
61004;DHT22;46889;37.310;13.582;2023-07-31T10:18:46;35.30;79.00
61004;DHT22;46889;37.310;13.582;2023-07-31T10:21:12;35.50;82.00
61004;DHT22;46889;37.310;13.582;2023-07-31T10:23:38;35.30;85.00
61004;DHT22;46889;37.310;13.582;2023-07-31T10:26:04;35.20;85.00
61004;DHT22;46889;37.310;13.582;2023-07-31T10:28:32;35.40;80.20
61004;DHT22;46889;37.310;13.582;2023-07-31T10:30:58;35.20;76.40
61004;DHT22;46889;37.310;13.582;2023-07-31T10:33:24;35.30;77.80
61004;DHT22;46889;37.310;13.582;2023-07-31T10:35:50;35.40;77.90
61004;DHT22;46889;37.310;13.582;2023-07-31T10:38:19;35.50;77.70
61004;DHT22;46889;37.310;13.582;2023-07-31T10:40:44;35.50;77.70
61004;DHT22;46889;37.310;13.582;2023-07-31T10:43:23;35.50;78.80
61004;DHT22;46889;37.310;13.582;2023-07-31T10:45:49;35.60;79.40
61004;DHT22;46889;37.310;13.582;2023-07-31T10:48:16;35.80;78.00
61004;DHT22;46889;37.310;13.582;2023-07-31T10:50:48;35.60;79.10
61004;DHT22;46889;37.310;13.582;2023-07-31T10:53:24;35.70;78.10
61004;DHT22;46889;37.310;13.582;2023-07-31T10:55:50;35.80;78.50
61004;DHT22;46889;37.310;13.582;2023-07-31T10:58:20;35.90;78.80
61004;DHT22;46889;37.310;13.582;2023-07-31T11:00:49;35.60;79.10
61004;DHT22;46889;37.310;13.582;2023-07-31T11:03:18;35.40;80.00
61004;DHT22;46889;37.310;13.582;2023-07-31T11:05:49;35.50;80.30
61004;DHT22;46889;37.310;13.582;2023-07-31T11:08:20;35.60;82.70
61004;DHT22;46889;37.310;13.582;2023-07-31T11:10:46;35.60;82.40
61004;DHT22;46889;37.310;13.582;2023-07-31T11:13:12;35.70;81.60
61004;DHT22;46889;37.310;13.582;2023-07-31T11:15:38;35.60;82.40
61004;DHT22;46889;37.310;13.582;2023-07-31T11:18:04;35.60;85.20
61004;DHT22;46889;37.310;13.582;2023-07-31T11:20:34;35.80;87.10
61004;DHT22;46889;37.310;13.582;2023-07-31T11:23:03;36.00;88.40
61004;DHT22;46889;37.310;13.582;2023-07-31T11:25:30;36.10;87.70
61004;DHT22;46889;37.310;13.582;2023-07-31T11:27:57;36.10;87.30
61004;DHT22;46889;37.310;13.582;2023-07-31T11:30:23;36.20;88.90
61004;DHT22;46889;37.310;13.582;2023-07-31T11:32:49;36.20;88.90
61004;DHT22;46889;37.310;13.582;2023-07-31T11:35:16;36.20;89.20
61004;DHT22;46889;37.310;13.582;2023-07-31T11:37:43;36.10;88.20
61004;DHT22;46889;37.310;13.582;2023-07-31T11:40:09;36.20;87.70
61004;DHT22;46889;37.310;13.582;2023-07-31T11:42:35;36.20;86.50
61004;DHT22;46889;37.310;13.582;2023-07-31T11:45:02;36.30;83.10
61004;DHT22;46889;37.310;13.582;2023-07-31T11:47:28;36.30;82.80
61004;DHT22;46889;37.310;13.582;2023-07-31T11:49:53;36.20;82.20
61004;DHT22;46889;37.310;13.582;2023-07-31T11:52:20;36.30;80.90
61004;DHT22;46889;37.310;13.582;2023-07-31T11:54:46;36.50;78.90
61004;DHT22;46889;37.310;13.582;2023-07-31T11:57:12;36.50;77.60
61004;DHT22;46889;37.310;13.582;2023-07-31T11:59:38;36.50;75.60
61004;DHT22;46889;37.310;13.582;2023-07-31T12:02:04;36.30;75.80
61004;DHT22;46889;37.310;13.582;2023-07-31T12:04:30;36.40;71.90
61004;DHT22;46889;37.310;13.582;2023-07-31T12:06:56;36.50;70.80
61004;DHT22;46889;37.310;13.582;2023-07-31T12:09:22;36.50;71.10
61004;DHT22;46889;37.310;13.582;2023-07-31T12:11:49;36.70;70.50
61004;DHT22;46889;37.310;13.582;2023-07-31T12:14:21;36.70;70.60
61004;DHT22;46889;37.310;13.582;2023-07-31T12:17:08;36.60;72.10
61004;DHT22;46889;37.310;13.582;2023-07-31T12:19:34;36.70;73.40
61004;DHT22;46889;37.310;13.582;2023-07-31T12:22:00;36.70;74.90
61004;DHT22;46889;37.310;13.582;2023-07-31T12:24:26;36.40;75.90
61004;DHT22;46889;37.310;13.582;2023-07-31T12:26:52;36.10;77.00
61004;DHT22;46889;37.310;13.582;2023-07-31T12:29:20;35.80;79.40
61004;DHT22;46889;37.310;13.582;2023-07-31T12:31:46;35.90;79.50
61004;DHT22;46889;37.310;13.582;2023-07-31T12:34:18;36.40;80.30
61004;DHT22;46889;37.310;13.582;2023-07-31T12:36:44;36.50;80.00
61004;DHT22;46889;37.310;13.582;2023-07-31T12:39:10;36.40;78.90
61004;DHT22;46889;37.310;13.582;2023-07-31T12:41:36;36.50;79.10
61004;DHT22;46889;37.310;13.582;2023-07-31T12:44:02;36.40;82.80
61004;DHT22;46889;37.310;13.582;2023-07-31T12:46:28;36.50;80.00
61004;DHT22;46889;37.310;13.582;2023-07-31T12:48:54;36.40;80.00
61004;DHT22;46889;37.310;13.582;2023-07-31T12:51:20;36.30;78.60
61004;DHT22;46889;37.310;13.582;2023-07-31T12:53:46;36.20;79.60
61004;DHT22;46889;37.310;13.582;2023-07-31T12:56:12;35.90;78.80
61004;DHT22;46889;37.310;13.582;2023-07-31T12:58:38;35.90;77.70
61004;DHT22;46889;37.310;13.582;2023-07-31T13:01:04;36.10;78.10
61004;DHT22;46889;37.310;13.582;2023-07-31T13:03:31;35.60;81.50
61004;DHT22;46889;37.310;13.582;2023-07-31T13:05:57;35.60;83.40
61004;DHT22;46889;37.310;13.582;2023-07-31T13:08:22;35.70;84.30
61004;DHT22;46889;37.310;13.582;2023-07-31T13:10:48;35.90;87.70
61004;DHT22;46889;37.310;13.582;2023-07-31T13:13:14;35.80;90.10
61004;DHT22;46889;37.310;13.582;2023-07-31T13:15:40;35.90;90.80
61004;DHT22;46889;37.310;13.582;2023-07-31T13:18:06;35.60;91.30
61004;DHT22;46889;37.310;13.582;2023-07-31T13:20:32;35.10;92.40
61004;DHT22;46889;37.310;13.582;2023-07-31T13:22:57;35.20;92.80
61004;DHT22;46889;37.310;13.582;2023-07-31T13:25:23;35.10;92.70
61004;DHT22;46889;37.310;13.582;2023-07-31T13:27:49;34.90;92.90
61004;DHT22;46889;37.310;13.582;2023-07-31T13:30:15;34.90;93.30
61004;DHT22;46889;37.310;13.582;2023-07-31T13:32:41;34.90;93.70
61004;DHT22;46889;37.310;13.582;2023-07-31T13:35:07;34.90;94.40
61004;DHT22;46889;37.310;13.582;2023-07-31T13:37:33;34.80;95.40
61004;DHT22;46889;37.310;13.582;2023-07-31T13:39:59;34.80;95.80
61004;DHT22;46889;37.310;13.582;2023-07-31T13:42:25;34.80;96.30
61004;DHT22;46889;37.310;13.582;2023-07-31T13:44:53;34.60;97.60
61004;DHT22;46889;37.310;13.582;2023-07-31T13:47:21;34.70;98.80
61004;DHT22;46889;37.310;13.582;2023-07-31T13:49:47;34.60;99.10
61004;DHT22;46889;37.310;13.582;2023-07-31T13:52:13;34.70;99.60
61004;DHT22;46889;37.310;13.582;2023-07-31T13:54:39;34.90;99.80
61004;DHT22;46889;37.310;13.582;2023-07-31T13:57:04;35.10;99.90
61004;DHT22;46889;37.310;13.582;2023-07-31T13:59:30;35.10;99.90
61004;DHT22;46889;37.310;13.582;2023-07-31T14:01:56;35.20;98.60
61004;DHT22;46889;37.310;13.582;2023-07-31T14:04:22;35.00;96.40
61004;DHT22;46889;37.310;13.582;2023-07-31T14:06:48;34.70;95.70
61004;DHT22;46889;37.310;13.582;2023-07-31T14:09:15;34.80;95.20
61004;DHT22;46889;37.310;13.582;2023-07-31T14:11:42;34.90;94.80
61004;DHT22;46889;37.310;13.582;2023-07-31T14:14:09;34.90;94.70
61004;DHT22;46889;37.310;13.582;2023-07-31T14:16:35;34.90;95.60
61004;DHT22;46889;37.310;13.582;2023-07-31T14:19:00;35.10;96.70
61004;DHT22;46889;37.310;13.582;2023-07-31T14:21:26;35.20;98.10
61004;DHT22;46889;37.310;13.582;2023-07-31T14:23:52;35.10;98.90
61004;DHT22;46889;37.310;13.582;2023-07-31T14:26:18;35.00;99.90
61004;DHT22;46889;37.310;13.582;2023-07-31T14:28:44;34.60;99.90
61004;DHT22;46889;37.310;13.582;2023-07-31T14:31:10;34.90;99.90
61004;DHT22;46889;37.310;13.582;2023-07-31T14:33:36;34.80;99.90
61004;DHT22;46889;37.310;13.582;2023-07-31T14:36:02;35.00;99.90
61004;DHT22;46889;37.310;13.582;2023-07-31T14:38:27;35.00;99.90
61004;DHT22;46889;37.310;13.582;2023-07-31T14:40:53;35.00;99.90
61004;DHT22;46889;37.310;13.582;2023-07-31T14:43:19;34.80;99.90
61004;DHT22;46889;37.310;13.582;2023-07-31T14:45:45;34.50;99.90
61004;DHT22;46889;37.310;13.582;2023-07-31T14:48:12;34.60;99.90
61004;DHT22;46889;37.310;13.582;2023-07-31T14:50:38;34.50;99.90
61004;DHT22;46889;37.310;13.582;2023-07-31T14:53:04;34.60;99.90
61004;DHT22;46889;37.310;13.582;2023-07-31T14:55:29;34.70;99.90
61004;DHT22;46889;37.310;13.582;2023-07-31T14:57:55;34.80;99.90
61004;DHT22;46889;37.310;13.582;2023-07-31T15:00:21;34.80;99.90
61004;DHT22;46889;37.310;13.582;2023-07-31T15:02:47;34.80;99.90
61004;DHT22;46889;37.310;13.582;2023-07-31T15:05:13;34.80;99.90
61004;DHT22;46889;37.310;13.582;2023-07-31T15:07:39;34.90;99.90
61004;DHT22;46889;37.310;13.582;2023-07-31T15:10:04;34.80;99.90
61004;DHT22;46889;37.310;13.582;2023-07-31T15:12:31;34.70;99.90